Time;durP1;ratioP1;P1;durP2;ratioP2;P2;SDS_P1;SDS_P2;PMS_P1;PMS_P2;Temp;Humidity;BMP_temperature;BMP_pressure;BME280_temperature;BME280_humidity;BME280_pressure;Samples;Min_cycle;Max_cycle;Signal;HPM_P1;HPM_P2
2022/11/04 00:01:22;;;;;;;6.93;1.63;;;11.10;99.90;;;;;;4768344;29;20413;-80
2022/11/04 00:03:48;;;;;;;7.50;1.40;;;11.10;99.90;;;;;;4793742;29;20081;-80
2022/11/04 00:06:14;;;;;;;9.70;1.30;;;11.10;99.90;;;;;;4762249;29;20129;-79
2022/11/04 00:08:40;;;;;;;10.55;1.33;;;11.10;99.90;;;;;;4777741;29;20061;-79
2022/11/04 00:13:50;;;;;;;6.47;1.10;;;11.00;99.90;;;;;;4794159;29;20046;-79
2022/11/04 00:19:01;;;;;;;8.00;0.90;;;10.90;99.90;;;;;;4792234;29;20077;-79
2022/11/04 00:29:42;;;;;;;6.20;1.00;;;10.90;99.90;;;;;;4795192;29;20461;-80
2022/11/04 00:34:52;;;;;;;5.88;0.90;;;11.00;99.90;;;;;;4790192;29;20075;-80
2022/11/04 00:37:18;;;;;;;4.00;0.90;;;11.00;99.90;;;;;;4776699;29;20454;-81
2022/11/04 00:39:43;;;;;;;5.82;0.90;;;11.00;99.90;;;;;;4779735;29;20065;-80
2022/11/04 00:42:09;;;;;;;9.30;1.15;;;11.00;99.90;;;;;;4777086;29;20050;-80
2022/11/04 00:44:35;;;;;;;5.35;0.70;;;11.00;99.90;;;;;;4778333;29;20119;-81
2022/11/04 00:47:00;;;;;;;5.55;0.88;;;11.00;99.90;;;;;;4773361;29;20058;-81
2022/11/04 00:49:26;;;;;;;3.50;0.82;;;11.00;99.90;;;;;;4777765;29;20557;-80
2022/11/04 00:51:52;;;;;;;5.72;0.95;;;11.00;99.90;;;;;;4764302;29;20054;-80
2022/11/04 00:54:18;;;;;;;4.32;1.75;;;11.00;99.90;;;;;;4790049;29;21490;-80
2022/11/04 00:56:43;;;;;;;5.60;1.00;;;11.10;99.90;;;;;;4761805;29;20093;-80
2022/11/04 00:59:09;;;;;;;5.85;0.82;;;11.10;99.90;;;;;;4762354;29;20046;-81
2022/11/04 01:01:35;;;;;;;6.65;1.10;;;11.10;99.90;;;;;;4773436;29;20153;-80
2022/11/04 01:04:01;;;;;;;4.88;1.05;;;11.10;99.90;;;;;;4773353;29;20070;-80
2022/11/04 01:06:27;;;;;;;3.67;0.95;;;11.10;99.90;;;;;;4761866;29;20547;-80
2022/11/04 01:09:00;;;;;;;4.15;0.85;;;11.10;99.90;;;;;;4787244;29;20523;-80
2022/11/04 01:11:28;;;;;;;6.68;1.00;;;11.10;99.90;;;;;;4777685;29;20506;-80
2022/11/04 01:13:54;;;;;;;9.52;1.50;;;11.10;99.90;;;;;;4789812;29;20149;-79
2022/11/04 01:16:20;;;;;;;15.95;1.77;;;11.10;99.90;;;;;;4788088;29;20073;-80
2022/11/04 01:18:46;;;;;;;5.60;1.00;;;11.10;99.90;;;;;;4776555;29;20050;-80
2022/11/04 01:21:13;;;;;;;4.32;0.90;;;11.10;99.90;;;;;;4773902;29;20061;-80
2022/11/04 01:23:40;;;;;;;5.18;0.90;;;11.00;99.90;;;;;;4778705;29;20829;-80
2022/11/04 01:26:08;;;;;;;2.25;0.77;;;11.00;99.90;;;;;;4774538;29;20086;-80
2022/11/04 01:28:34;;;;;;;3.83;0.82;;;11.00;99.90;;;;;;4788704;29;20116;-80
2022/11/04 01:31:06;;;;;;;3.70;1.00;;;11.00;99.90;;;;;;4777395;29;20477;-80
2022/11/04 01:33:31;;;;;;;7.10;1.30;;;10.90;99.90;;;;;;4791592;29;20322;-80
2022/11/04 01:36:01;;;;;;;4.60;1.10;;;10.90;99.90;;;;;;4760765;29;20563;-80
2022/11/04 01:38:27;;;;;;;4.15;1.00;;;10.90;99.90;;;;;;4772664;29;20762;-80
2022/11/04 01:40:53;;;;;;;5.18;1.63;;;10.90;99.90;;;;;;4776341;29;20055;-79
2022/11/04 01:43:21;;;;;;;7.30;1.00;;;10.90;99.90;;;;;;4807058;29;20062;-80
2022/11/04 01:45:56;;;;;;;4.40;0.98;;;10.90;99.90;;;;;;4777449;29;20049;-80
2022/11/04 01:48:28;;;;;;;5.80;1.40;;;11.00;99.90;;;;;;4787930;29;20120;-80
2022/11/04 01:50:55;;;;;;;4.43;1.38;;;10.90;99.90;;;;;;4803095;29;20122;-80
2022/11/04 01:53:27;;;;;;;5.18;0.88;;;10.90;99.90;;;;;;4776175;29;20060;-80
2022/11/04 01:55:58;;;;;;;8.93;1.40;;;10.90;99.90;;;;;;4778155;29;20061;-80
2022/11/04 01:58:27;;;;;;;5.70;1.00;;;10.90;99.90;;;;;;4790377;29;20054;-80
2022/11/04 02:00:53;;;;;;;6.65;1.90;;;11.00;99.90;;;;;;4788593;29;20050;-79
2022/11/04 02:03:30;;;;;;;7.95;1.00;;;10.90;99.90;;;;;;4765676;29;20057;-80
2022/11/04 02:05:56;;;;;;;4.95;1.13;;;10.90;99.90;;;;;;4791665;29;20055;-80
2022/11/04 02:08:22;;;;;;;10.68;1.92;;;10.90;99.90;;;;;;4775686;29;20304;-80
2022/11/04 02:10:56;;;;;;;6.93;1.20;;;10.90;99.90;;;;;;4792066;29;20062;-80
2022/11/04 02:13:22;;;;;;;8.15;1.70;;;10.90;99.90;;;;;;4805091;29;20084;-80
2022/11/04 02:16:15;;;;;;;6.28;1.52;;;10.90;99.90;;;;;;4774924;29;20129;-80
2022/11/04 02:19:10;;;;;;;6.63;1.63;;;10.80;99.90;;;;;;4788533;29;20057;-80
2022/11/04 02:22:13;;;;;;;3.70;1.02;;;10.80;99.90;;;;;;4791174;29;20102;-80
2022/11/04 02:25:00;;;;;;;4.20;1.08;;;10.70;99.90;;;;;;4802255;29;20625;-81
2022/11/04 02:27:41;;;;;;;7.20;1.15;;;10.70;99.90;;;;;;4790110;29;20456;-80
2022/11/04 02:30:15;;;;;;;6.55;1.15;;;10.70;99.90;;;;;;4779483;29;20061;-80
2022/11/04 02:32:49;;;;;;;3.58;0.73;;;10.70;99.90;;;;;;4779280;29;20049;-80
2022/11/04 02:35:36;;;;;;;6.55;1.20;;;10.70;99.90;;;;;;4792257;29;20123;-80
2022/11/04 02:38:19;;;;;;;4.07;1.08;;;10.70;99.90;;;;;;4779105;29;20104;-80
2022/11/04 02:40:56;;;;;;;6.45;1.17;;;10.70;99.90;;;;;;4777463;29;20471;-79
2022/11/04 02:44:07;;;;;;;4.80;0.93;;;10.70;99.90;;;;;;4776135;29;20107;-79
2022/11/04 02:46:44;;;;;;;6.65;0.80;;;10.50;99.90;;;;;;4787361;29;20086;-79
2022/11/04 02:49:22;;;;;;;6.25;0.75;;;10.30;99.90;;;;;;4776313;29;20069;-79
2022/11/04 02:52:13;;;;;;;5.30;1.30;;;10.10;99.90;;;;;;4771616;29;20122;-80
2022/11/04 02:54:44;;;;;;;6.20;1.20;;;10.00;99.90;;;;;;4764488;29;20066;-80
2022/11/04 02:57:15;;;;;;;4.90;1.10;;;10.00;99.90;;;;;;4789184;29;20069;-80
2022/11/04 02:59:47;;;;;;;8.82;1.20;;;10.00;99.90;;;;;;4776543;29;20080;-80
2022/11/04 03:02:19;;;;;;;8.55;1.35;;;10.10;99.90;;;;;;4791200;29;20110;-79
2022/11/04 03:04:49;;;;;;;4.53;1.10;;;10.10;99.90;;;;;;4796223;29;20062;-80
2022/11/04 03:07:21;;;;;;;9.25;1.40;;;10.20;99.90;;;;;;4791562;29;20046;-80
2022/11/04 03:09:53;;;;;;;10.07;1.48;;;10.20;99.90;;;;;;4790972;29;20425;-80
2022/11/04 03:12:24;;;;;;;5.82;1.13;;;10.30;99.90;;;;;;4773179;29;20119;-80
2022/11/04 03:14:54;;;;;;;6.53;0.90;;;10.30;99.90;;;;;;4775957;29;20050;-79
2022/11/04 03:17:35;;;;;;;8.05;1.10;;;10.40;99.90;;;;;;4791700;29;20046;-80
2022/11/04 03:20:08;;;;;;;5.03;0.90;;;10.40;99.90;;;;;;4788324;29;20050;-80
2022/11/04 03:22:35;;;;;;;4.80;1.13;;;10.40;99.90;;;;;;4791091;29;20050;-80
2022/11/04 03:25:06;;;;;;;6.63;1.20;;;10.40;99.90;;;;;;4791447;29;20050;-80
2022/11/04 03:28:01;;;;;;;1.70;0.70;;;10.50;99.90;;;;;;4773903;29;20057;-80
2022/11/04 03:30:42;;;;;;;1.75;0.70;;;10.40;99.90;;;;;;4792625;29;20345;-80
2022/11/04 03:33:36;;;;;;;2.38;0.68;;;10.30;99.90;;;;;;4792394;29;20125;-79
2022/11/04 03:36:03;;;;;;;1.98;0.88;;;10.20;99.90;;;;;;4776847;29;20429;-80
2022/11/04 03:38:29;;;;;;;3.47;1.08;;;10.10;99.90;;;;;;4778474;29;20046;-79
2022/11/04 03:40:56;;;;;;;2.50;0.70;;;10.10;99.90;;;;;;4777604;29;20065;-80
2022/11/04 03:43:24;;;;;;;3.03;0.77;;;10.10;99.90;;;;;;4808434;29;20107;-79
2022/11/04 03:45:50;;;;;;;5.35;0.82;;;10.10;99.90;;;;;;4790614;29;20610;-79
2022/11/04 03:48:16;;;;;;;4.18;0.68;;;10.10;99.90;;;;;;4778596;29;20133;-79
2022/11/04 03:50:46;;;;;;;2.17;0.70;;;10.10;99.90;;;;;;4777612;29;20054;-80
2022/11/04 03:53:16;;;;;;;3.33;1.05;;;10.20;99.90;;;;;;4791442;29;20523;-79
2022/11/04 03:56:06;;;;;;;3.53;0.98;;;10.30;99.90;;;;;;4794908;29;20050;-80
2022/11/04 03:58:38;;;;;;;5.60;1.27;;;10.30;99.90;;;;;;4779279;29;20060;-79
2022/11/04 04:01:16;;;;;;;7.80;1.17;;;10.40;99.90;;;;;;4778828;29;20133;-79
2022/11/04 04:03:53;;;;;;;3.17;1.08;;;10.40;99.90;;;;;;4791956;29;20062;-79
2022/11/04 04:06:28;;;;;;;4.20;1.40;;;10.40;99.90;;;;;;4784667;29;20058;-79
2022/11/04 04:09:07;;;;;;;5.82;1.25;;;10.40;99.90;;;;;;4791351;29;20062;-79
2022/11/04 04:11:55;;;;;;;4.63;0.90;;;10.30;99.90;;;;;;4792508;29;20055;-79
2022/11/04 04:14:39;;;;;;;6.95;0.90;;;10.40;99.90;;;;;;4790721;29;20177;-79
2022/11/04 04:17:31;;;;;;;4.07;0.80;;;10.40;99.90;;;;;;4789467;29;20106;-79
2022/11/04 04:20:13;;;;;;;3.72;0.75;;;10.40;99.90;;;;;;4783293;29;20134;-79
2022/11/04 04:22:53;;;;;;;3.03;0.60;;;10.40;99.90;;;;;;4777511;29;20062;-80
2022/11/04 04:28:05;;;;;;;;;;;10.30;99.90;;;;;;4795474;29;20155;-79
2022/11/04 04:30:31;;;;;;;5.90;1.10;;;10.30;99.90;;;;;;4779822;29;20443;-80
2022/11/04 04:33:11;;;;;;;3.65;1.58;;;10.30;99.90;;;;;;4767740;29;20206;-80
2022/11/04 04:35:44;;;;;;;3.80;0.85;;;10.20;99.90;;;;;;4776588;29;20262;-81
2022/11/04 04:46:49;;;;;;;4.80;1.10;;;10.20;99.90;;;;;;4793469;29;20381;-81
2022/11/04 04:49:15;;;;;;;5.75;1.02;;;10.20;99.90;;;;;;4777789;29;21053;-80
2022/11/04 04:51:44;;;;;;;6.10;1.02;;;10.20;99.90;;;;;;4761206;29;20104;-81
2022/11/04 04:54:10;;;;;;;6.13;0.90;;;10.20;99.90;;;;;;4794180;29;20366;-81
2022/11/04 04:56:36;;;;;;;5.07;0.90;;;10.10;99.90;;;;;;4774731;29;20080;-81
2022/11/04 04:59:02;;;;;;;4.28;0.93;;;10.10;99.90;;;;;;4793779;29;20061;-80
2022/11/04 05:01:28;;;;;;;4.47;0.80;;;10.10;99.90;;;;;;4776900;29;20054;-81
2022/11/04 05:03:54;;;;;;;5.40;0.90;;;10.10;99.90;;;;;;4790790;29;20062;-81
2022/11/04 05:06:19;;;;;;;5.85;0.88;;;10.10;99.90;;;;;;4777642;29;20405;-80
2022/11/04 05:08:45;;;;;;;5.90;1.10;;;10.20;99.90;;;;;;4781534;29;20069;-81
2022/11/04 05:11:11;;;;;;;4.88;0.80;;;10.20;99.90;;;;;;4764463;29;20054;-81
2022/11/04 05:13:40;;;;;;;2.97;0.80;;;10.20;99.90;;;;;;4793045;29;20059;-81
2022/11/04 05:16:08;;;;;;;1.88;0.80;;;10.00;99.90;;;;;;4763707;29;20137;-81
2022/11/04 05:18:34;;;;;;;5.30;0.90;;;10.30;99.90;;;;;;4791375;29;20492;-81
2022/11/04 05:21:11;;;;;;;5.22;1.20;;;10.40;99.90;;;;;;4777081;29;20097;-81
2022/11/04 05:23:37;;;;;;;6.03;0.98;;;10.40;99.90;;;;;;4789269;29;20160;-79
2022/11/04 05:26:03;;;;;;;4.53;1.48;;;10.40;99.90;;;;;;4790987;29;20076;-79
2022/11/04 05:28:29;;;;;;;4.65;0.82;;;10.40;99.90;;;;;;4806243;29;20078;-79
2022/11/04 05:30:55;;;;;;;6.65;1.27;;;10.40;99.90;;;;;;4778881;29;20170;-81
2022/11/04 05:33:20;;;;;;;5.30;1.05;;;10.40;99.90;;;;;;4790794;29;20471;-80
2022/11/04 05:35:46;;;;;;;4.00;0.90;;;10.30;99.90;;;;;;4778078;29;20166;-79
2022/11/04 05:38:12;;;;;;;4.78;0.90;;;10.30;99.90;;;;;;4788098;29;20062;-80
2022/11/04 05:40:38;;;;;;;1.33;0.60;;;10.30;99.90;;;;;;4762824;29;20046;-81
2022/11/04 05:43:05;;;;;;;2.50;0.70;;;10.20;99.90;;;;;;4777605;29;20058;-80
2022/11/04 05:45:30;;;;;;;1.50;0.80;;;10.20;99.90;;;;;;4776271;29;20054;-81
2022/11/04 05:48:01;;;;;;;6.65;1.15;;;10.10;99.90;;;;;;4778029;29;20709;-81
2022/11/04 05:50:32;;;;;;;5.00;0.90;;;10.10;99.90;;;;;;4790604;29;20051;-83
2022/11/04 05:52:58;;;;;;;2.83;0.60;;;10.10;99.90;;;;;;4778888;29;20496;-83
2022/11/04 05:55:25;;;;;;;3.55;0.88;;;10.10;99.90;;;;;;4779070;29;20634;-83
2022/11/04 05:57:51;;;;;;;3.50;0.70;;;10.00;99.90;;;;;;4779388;29;20055;-82
2022/11/04 06:00:17;;;;;;;2.05;0.60;;;10.00;99.90;;;;;;4764576;29;20058;-82
2022/11/04 06:02:43;;;;;;;2.85;0.77;;;10.00;99.90;;;;;;4769326;29;20477;-82
2022/11/04 06:05:09;;;;;;;2.00;0.82;;;9.90;99.90;;;;;;4792028;29;20055;-82
2022/11/04 06:07:34;;;;;;;5.40;1.15;;;9.90;99.90;;;;;;4781458;29;20623;-82
2022/11/04 06:10:00;;;;;;;4.32;1.15;;;9.90;99.90;;;;;;4763670;29;20666;-82
2022/11/04 06:12:26;;;;;;;4.63;1.00;;;9.90;99.90;;;;;;4786046;29;20058;-82
2022/11/04 06:14:52;;;;;;;6.88;1.15;;;10.00;99.90;;;;;;4787073;29;20132;-82
2022/11/04 06:17:20;;;;;;;4.65;1.08;;;10.00;99.90;;;;;;4779258;29;20050;-83
2022/11/04 06:19:46;;;;;;;2.45;0.77;;;9.90;99.90;;;;;;4778478;29;20062;-83
2022/11/04 06:22:14;;;;;;;4.80;0.90;;;10.00;99.90;;;;;;4778660;29;20145;-80
2022/11/04 06:24:40;;;;;;;1.73;0.70;;;9.90;99.90;;;;;;4791082;29;20125;-81
2022/11/04 06:27:06;;;;;;;0.85;0.50;;;9.80;99.90;;;;;;4789478;29;20074;-80
2022/11/04 06:29:32;;;;;;;3.15;0.80;;;9.70;99.90;;;;;;4792760;29;20054;-79
2022/11/04 06:31:58;;;;;;;2.83;0.80;;;9.60;99.90;;;;;;4804653;29;20129;-83
2022/11/04 06:34:27;;;;;;;2.47;0.88;;;9.60;99.90;;;;;;4776781;29;20050;-83
2022/11/04 06:36:53;;;;;;;2.53;0.68;;;9.50;99.90;;;;;;4751703;29;20061;-86
2022/11/04 06:39:19;;;;;;;2.10;0.75;;;9.50;99.90;;;;;;4777929;29;20046;-80
2022/11/04 06:41:44;;;;;;;2.13;0.88;;;9.50;99.90;;;;;;4791928;29;20069;-82
2022/11/04 06:44:10;;;;;;;3.45;1.00;;;9.40;99.90;;;;;;4764530;29;20069;-82
2022/11/04 06:46:38;;;;;;;2.53;0.80;;;9.40;99.90;;;;;;4747794;29;20826;-80
2022/11/04 06:49:06;;;;;;;3.17;0.80;;;9.30;99.90;;;;;;4791752;29;20054;-80
2022/11/04 06:51:33;;;;;;;3.45;0.85;;;9.40;99.90;;;;;;4792860;29;20054;-78
2022/11/04 06:53:58;;;;;;;3.47;0.90;;;9.30;99.90;;;;;;4775645;29;20051;-80
2022/11/04 06:56:24;;;;;;;5.15;1.17;;;9.30;99.90;;;;;;4759733;29;20564;-78
2022/11/04 06:58:53;;;;;;;4.05;1.00;;;9.30;99.90;;;;;;4790790;29;20660;-79
2022/11/04 07:01:20;;;;;;;4.50;0.85;;;9.30;99.90;;;;;;4761591;29;20403;-80
2022/11/04 07:03:53;;;;;;;4.57;1.00;;;9.30;99.90;;;;;;4774403;29;20050;-79
2022/11/04 07:06:20;;;;;;;3.17;0.80;;;9.30;99.90;;;;;;4789146;29;20071;-81
2022/11/04 07:08:47;;;;;;;4.05;0.90;;;9.30;99.90;;;;;;4789684;29;20851;-80
2022/11/04 07:11:13;;;;;;;3.95;0.90;;;9.30;99.90;;;;;;4792121;29;20046;-80
2022/11/04 07:13:39;;;;;;;3.63;0.98;;;9.20;99.90;;;;;;4776822;29;20049;-80
2022/11/04 07:16:07;;;;;;;2.35;0.80;;;9.20;99.90;;;;;;4791777;29;20094;-80
2022/11/04 07:18:32;;;;;;;2.65;0.98;;;9.20;99.90;;;;;;4780415;29;20065;-81
2022/11/04 07:20:58;;;;;;;3.30;0.90;;;9.20;99.90;;;;;;4797444;29;20058;-80
2022/11/04 07:23:24;;;;;;;3.28;0.85;;;9.10;99.90;;;;;;4779456;29;20489;-80
2022/11/04 07:25:50;;;;;;;4.80;1.10;;;9.20;99.90;;;;;;4778703;29;20054;-81
2022/11/04 07:28:16;;;;;;;4.78;1.05;;;9.20;99.90;;;;;;4779649;29;20065;-80
2022/11/04 07:30:41;;;;;;;4.82;1.20;;;9.30;99.90;;;;;;4778225;29;20043;-80
2022/11/04 07:33:07;;;;;;;4.03;1.00;;;9.30;99.90;;;;;;4780998;29;20069;-79
2022/11/04 07:35:34;;;;;;;4.53;1.13;;;9.40;99.90;;;;;;4796323;29;20058;-80
2022/11/04 07:38:02;;;;;;;2.75;1.02;;;9.50;99.90;;;;;;4783572;29;20051;-80
2022/11/04 07:40:28;;;;;;;8.00;1.30;;;9.50;99.90;;;;;;4769038;29;20488;-79
2022/11/04 07:42:54;;;;;;;4.22;1.40;;;9.60;99.90;;;;;;4781282;29;20066;-80
2022/11/04 07:45:19;;;;;;;4.47;1.25;;;9.60;99.90;;;;;;4776748;29;20493;-80
2022/11/04 07:47:45;;;;;;;3.42;1.05;;;9.70;99.90;;;;;;4758815;29;20062;-80
2022/11/04 07:50:11;;;;;;;6.32;0.95;;;9.70;99.90;;;;;;4775114;29;20055;-80
2022/11/04 07:52:37;;;;;;;1.63;0.90;;;9.70;99.90;;;;;;4778911;29;20054;-81
2022/11/04 07:55:03;;;;;;;3.65;1.30;;;9.80;99.90;;;;;;4795786;29;20072;-79
2022/11/04 07:57:28;;;;;;;3.40;0.95;;;9.90;99.90;;;;;;4771260;29;20137;-79
2022/11/04 07:59:54;;;;;;;3.95;1.30;;;9.90;99.90;;;;;;4759202;29;20050;-78
2022/11/04 08:02:20;;;;;;;4.78;0.88;;;10.00;99.90;;;;;;4757400;29;20408;-78
2022/11/04 08:04:46;;;;;;;5.25;1.05;;;10.10;99.90;;;;;;4758878;29;20062;-82
2022/11/04 08:07:12;;;;;;;3.75;0.85;;;10.20;99.90;;;;;;4762324;29;20065;-82
2022/11/04 08:09:38;;;;;;;6.35;1.08;;;10.30;99.90;;;;;;4774420;29;20158;-79
2022/11/04 08:12:04;;;;;;;4.05;0.98;;;10.40;99.90;;;;;;4796401;29;20058;-80
2022/11/04 08:14:30;;;;;;;5.97;1.30;;;10.50;99.90;;;;;;4798190;29;20061;-79
2022/11/04 08:16:56;;;;;;;8.30;1.70;;;10.50;99.90;;;;;;4782348;29;20062;-79
2022/11/04 08:19:22;;;;;;;4.20;1.30;;;10.60;99.90;;;;;;4784079;29;20054;-80
2022/11/04 08:21:47;;;;;;;5.30;1.13;;;10.60;99.90;;;;;;4769266;29;20318;-80
2022/11/04 08:24:13;;;;;;;4.68;1.10;;;10.70;99.90;;;;;;4797863;29;20429;-79
2022/11/04 08:26:39;;;;;;;5.65;1.20;;;10.80;99.90;;;;;;4791223;29;20067;-79
2022/11/04 08:29:08;;;;;;;6.53;1.10;;;10.90;99.90;;;;;;4768490;29;20067;-80
2022/11/04 08:31:34;;;;;;;6.10;1.30;;;10.90;99.90;;;;;;4797727;29;20058;-79
2022/11/04 08:34:00;;;;;;;7.90;1.55;;;11.00;99.90;;;;;;4805177;29;20062;-79
2022/11/04 08:36:32;;;;;;;9.63;2.55;;;11.10;99.90;;;;;;4790045;29;20575;-80
2022/11/04 08:38:58;;;;;;;8.15;1.65;;;11.10;99.90;;;;;;4781235;29;20784;-79
2022/11/04 08:41:27;;;;;;;4.20;1.00;;;11.20;99.90;;;;;;4795003;29;20078;-79
2022/11/04 08:43:55;;;;;;;6.35;1.77;;;11.10;99.90;;;;;;4791568;29;20247;-79
2022/11/04 08:46:21;;;;;;;5.53;1.40;;;11.10;99.90;;;;;;4795939;29;20514;-79
2022/11/04 08:48:48;;;;;;;5.38;1.52;;;11.10;99.90;;;;;;4764575;29;20195;-79
2022/11/04 08:51:18;;;;;;;8.48;1.60;;;11.00;99.90;;;;;;4809859;29;20062;-80
2022/11/04 08:53:44;;;;;;;6.63;1.73;;;11.00;99.90;;;;;;4796412;29;20447;-79
2022/11/04 08:56:18;;;;;;;7.25;1.38;;;10.90;99.90;;;;;;4796306;29;20055;-79
2022/11/04 08:58:44;;;;;;;6.97;1.20;;;10.90;99.90;;;;;;4798870;29;20529;-79
2022/11/04 09:01:11;;;;;;;7.35;1.30;;;10.80;99.90;;;;;;4792413;29;20482;-80
2022/11/04 09:03:38;;;;;;;9.35;1.23;;;10.80;99.90;;;;;;4794605;29;20042;-79
2022/11/04 09:06:10;;;;;;;7.25;1.15;;;10.80;99.90;;;;;;4794884;29;20051;-80
2022/11/04 09:08:38;;;;;;;4.32;1.10;;;10.80;99.90;;;;;;4794631;29;20116;-77
2022/11/04 09:11:09;;;;;;;4.93;1.30;;;10.90;99.90;;;;;;4780262;29;20058;-79
2022/11/04 09:13:36;;;;;;;4.13;1.23;;;10.90;99.90;;;;;;4779831;29;20125;-81
2022/11/04 09:16:02;;;;;;;6.25;1.10;;;10.90;99.90;;;;;;4781224;29;20065;-80
2022/11/04 09:18:29;;;;;;;5.50;1.30;;;10.90;99.90;;;;;;4796640;29;20054;-78
2022/11/04 09:20:59;;;;;;;3.33;0.90;;;11.00;99.90;;;;;;4780750;29;20043;-80
2022/11/04 09:23:25;;;;;;;6.95;1.60;;;11.10;99.90;;;;;;4796918;29;20422;-79
2022/11/04 09:25:50;;;;;;;5.13;1.23;;;11.20;99.90;;;;;;4791917;29;20063;-79
2022/11/04 09:28:16;;;;;;;4.95;1.35;;;11.30;99.90;;;;;;4794628;29;20142;-79
2022/11/04 09:30:42;;;;;;;5.50;1.10;;;11.30;99.90;;;;;;4767488;29;20044;-79
2022/11/04 09:33:08;;;;;;;4.57;1.02;;;11.30;99.90;;;;;;4797944;29;20053;-81
2022/11/04 09:35:33;;;;;;;7.20;1.30;;;11.30;99.90;;;;;;4797243;29;20090;-81
2022/11/04 09:38:00;;;;;;;9.02;1.23;;;11.20;99.90;;;;;;4768223;29;20829;-81
2022/11/04 09:40:26;;;;;;;6.70;1.40;;;11.40;99.90;;;;;;4793353;29;20103;-81
2022/11/04 09:43:01;;;;;;;7.88;1.70;;;11.50;99.90;;;;;;4793299;29;20047;-82
2022/11/04 09:45:29;;;;;;;7.03;1.50;;;11.80;99.90;;;;;;4810113;29;20089;-80
2022/11/04 09:47:59;;;;;;;7.05;1.50;;;12.10;99.90;;;;;;4781533;29;20054;-81
2022/11/04 09:50:43;;;;;;;8.07;1.58;;;12.20;99.90;;;;;;4802742;29;20051;-82
2022/11/04 09:53:35;;;;;;;5.75;1.20;;;12.20;99.90;;;;;;4808828;29;20082;-81
2022/11/04 09:56:09;;;;;;;5.20;1.50;;;12.20;99.90;;;;;;4791184;29;20178;-83
2022/11/04 09:58:37;;;;;;;6.40;1.23;;;12.20;99.90;;;;;;4777669;29;20934;-82
2022/11/04 10:01:21;;;;;;;4.18;0.90;;;12.10;99.90;;;;;;4791527;29;20046;-82
2022/11/04 10:04:19;;;;;;;5.93;1.10;;;12.00;99.90;;;;;;4790061;29;20043;-81
2022/11/04 10:06:51;;;;;;;4.72;1.20;;;11.90;99.90;;;;;;4761789;29;20936;-82
2022/11/04 10:09:17;;;;;;;5.60;1.42;;;11.80;99.90;;;;;;4775665;29;20140;-82
2022/11/04 10:11:52;;;;;;;5.18;1.15;;;11.70;99.90;;;;;;4775113;29;20051;-82
2022/11/04 10:14:32;;;;;;;8.27;1.60;;;11.70;99.90;;;;;;4785657;29;21408;-82
2022/11/04 10:17:06;;;;;;;4.43;1.40;;;11.70;99.90;;;;;;4775619;29;20066;-81
2022/11/04 10:20:21;;;;;;;4.93;1.52;;;11.70;99.90;;;;;;4788363;29;20070;-80
2022/11/04 10:22:59;;;;;;;6.00;1.80;;;11.70;99.90;;;;;;4763835;29;20067;-80
2022/11/04 10:25:37;;;;;;;6.30;1.63;;;11.80;99.90;;;;;;4789422;29;20062;-79
2022/11/04 10:28:04;;;;;;;6.80;1.50;;;11.80;99.90;;;;;;4775760;29;20054;-81
2022/11/04 10:30:32;;;;;;;7.30;1.20;;;12.00;99.90;;;;;;4779323;29;20573;-81
2022/11/04 10:33:15;;;;;;;6.68;1.30;;;12.00;99.90;;;;;;4777532;29;20066;-81
2022/11/04 10:35:50;;;;;;;6.57;1.73;;;12.10;99.90;;;;;;4782946;29;20054;-81
2022/11/04 10:38:30;;;;;;;5.63;1.77;;;12.20;99.90;;;;;;4779142;29;20421;-81
2022/11/04 10:40:56;;;;;;;5.93;1.40;;;12.20;99.90;;;;;;4773387;29;20603;-81
2022/11/04 10:43:35;;;;;;;5.20;1.10;;;12.30;99.90;;;;;;4762852;29;20085;-81
2022/11/04 10:46:31;;;;;;;8.93;2.00;;;12.40;99.90;;;;;;4778230;29;20050;-81
2022/11/04 10:49:18;;;;;;;4.68;1.30;;;12.40;99.90;;;;;;4795130;29;20069;-81
2022/11/04 10:51:44;;;;;;;4.70;1.55;;;12.40;99.90;;;;;;4794947;29;20055;-80
2022/11/04 10:54:10;;;;;;;5.63;1.30;;;12.40;99.90;;;;;;4795204;29;20550;-82
2022/11/04 10:56:43;;;;;;;7.93;1.70;;;12.40;99.90;;;;;;4777085;29;20531;-81
2022/11/04 10:59:29;;;;;;;5.18;1.52;;;12.40;99.90;;;;;;4790702;29;20077;-80
2022/11/04 11:02:00;;;;;;;10.05;1.35;;;12.40;99.90;;;;;;4795353;29;20129;-82
2022/11/04 11:04:33;;;;;;;5.68;1.50;;;12.60;99.90;;;;;;4791762;29;20139;-82
2022/11/04 11:07:01;;;;;;;7.30;1.85;;;13.20;99.90;;;;;;4793427;29;20123;-80
2022/11/04 11:09:31;;;;;;;7.13;1.88;;;12.70;99.90;;;;;;4777074;29;20126;-81
2022/11/04 11:12:01;;;;;;;5.40;1.35;;;12.80;99.90;;;;;;4779146;29;20065;-81
2022/11/04 11:14:26;;;;;;;8.63;1.38;;;12.90;99.90;;;;;;4794871;29;20055;-82
2022/11/04 11:16:52;;;;;;;6.63;1.70;;;13.10;99.90;;;;;;4792541;29;20565;-81
2022/11/04 11:19:20;;;;;;;7.97;1.80;;;13.20;99.90;;;;;;4780297;29;20061;-81
2022/11/04 11:21:49;;;;;;;5.72;1.30;;;13.20;99.90;;;;;;4779885;29;20055;-80
2022/11/04 11:24:24;;;;;;;7.78;1.67;;;13.10;99.90;;;;;;4780630;29;20161;-82
2022/11/04 11:27:00;;;;;;;8.70;1.53;;;13.10;99.90;;;;;;4795014;29;20117;-82
2022/11/04 11:29:39;;;;;;;10.35;1.60;;;13.00;99.90;;;;;;4802429;29;20626;-82
2022/11/04 11:32:15;;;;;;;11.00;1.58;;;12.90;99.90;;;;;;4784007;29;20176;-81
2022/11/04 11:34:45;;;;;;;8.85;1.73;;;12.80;99.90;;;;;;4777871;29;20050;-81
2022/11/04 11:37:24;;;;;;;9.05;1.60;;;12.90;99.90;;;;;;4764256;29;20302;-82
2022/11/04 11:39:50;;;;;;;7.82;1.50;;;12.90;99.90;;;;;;4766659;29;20058;-84
2022/11/04 11:42:19;;;;;;;7.90;1.38;;;13.00;99.90;;;;;;4792437;29;20591;-82
2022/11/04 11:44:53;;;;;;;5.22;1.30;;;13.00;99.90;;;;;;4774616;29;20046;-81
2022/11/04 11:47:37;;;;;;;5.45;1.63;;;12.90;99.90;;;;;;4779782;29;20089;-81
2022/11/04 11:50:19;;;;;;;4.82;1.13;;;13.00;99.90;;;;;;4791926;29;20054;-80
2022/11/04 11:52:48;;;;;;;7.30;1.38;;;13.00;99.90;;;;;;4794319;29;20057;-80
2022/11/04 11:55:25;;;;;;;4.72;1.30;;;13.10;99.90;;;;;;4780577;29;20064;-81
2022/11/04 11:58:09;;;;;;;3.15;0.95;;;13.00;99.90;;;;;;4782033;29;20049;-81
2022/11/04 12:00:45;;;;;;;5.88;1.83;;;12.90;99.90;;;;;;4795702;29;20053;-82
2022/11/04 12:03:44;;;;;;;4.65;1.10;;;12.90;99.90;;;;;;4782828;29;20061;-81
2022/11/04 12:06:41;;;;;;;10.40;1.45;;;12.80;99.90;;;;;;4806745;29;20069;-80
2022/11/04 12:09:35;;;;;;;4.63;1.10;;;12.90;99.90;;;;;;4779730;29;20638;-81
2022/11/04 12:12:38;;;;;;;7.95;1.52;;;13.60;99.90;;;;;;4805894;29;20050;-82
2022/11/04 12:15:32;;;;;;;8.40;1.77;;;14.00;99.90;;;;;;4783678;29;20050;-82
2022/11/04 12:18:33;;;;;;;4.18;1.23;;;14.10;99.90;;;;;;4778766;29;20069;-81
2022/11/04 12:21:37;;;;;;;6.70;1.48;;;14.80;99.90;;;;;;4792437;29;20165;-81
2022/11/04 12:24:33;;;;;;;5.00;1.40;;;15.60;99.90;;;;;;4778327;29;20222;-84
2022/11/04 12:27:22;;;;;;;7.95;1.40;;;16.60;99.90;;;;;;4797223;29;20074;-82
2022/11/04 12:29:56;;;;;;;5.10;1.13;;;17.30;99.90;;;;;;4782959;29;20050;-82
2022/11/04 12:32:40;;;;;;;7.45;1.45;;;17.80;99.90;;;;;;4797969;29;20169;-83
2022/11/04 12:35:47;;;;;;;6.47;1.35;;;18.20;99.90;;;;;;4796096;29;20054;-82
2022/11/04 12:38:35;;;;;;;6.63;1.30;;;18.20;99.90;;;;;;4752481;29;20145;-83
2022/11/04 12:41:19;;;;;;;3.60;1.25;;;18.40;99.90;;;;;;4781765;29;20103;-82
2022/11/04 12:43:58;;;;;;;5.25;1.38;;;18.60;99.90;;;;;;4796221;29;21032;-83
2022/11/04 12:46:35;;;;;;;5.25;1.02;;;18.40;99.90;;;;;;4796084;29;20062;-82
2022/11/04 12:49:41;;;;;;;2.33;0.77;;;18.60;99.90;;;;;;4786022;29;20103;-83
2022/11/04 12:52:41;;;;;;;7.38;1.23;;;18.80;99.90;;;;;;4794515;29;20050;-82
2022/11/04 12:55:27;;;;;;;5.35;1.40;;;18.70;99.90;;;;;;4793405;29;20082;-81
2022/11/04 12:58:12;;;;;;;4.70;1.10;;;18.60;99.90;;;;;;4794403;29;20104;-84
2022/11/04 13:00:40;;;;;;;5.03;1.10;;;18.30;99.90;;;;;;4785398;29;20602;-84
2022/11/04 13:03:31;;;;;;;3.50;1.35;;;18.10;99.90;;;;;;4793484;29;20570;-80
2022/11/04 13:06:04;;;;;;;2.75;1.13;;;17.80;99.90;;;;;;4796266;29;20214;-83
2022/11/04 13:08:42;;;;;;;5.05;1.30;;;17.80;99.90;;;;;;4798780;29;20077;-82
2022/11/04 13:11:23;;;;;;;5.72;1.48;;;17.70;99.90;;;;;;4797602;29;20050;-83
2022/11/04 13:14:10;;;;;;;6.20;2.63;;;17.70;99.90;;;;;;4785641;29;20057;-83
2022/11/04 13:16:39;;;;;;;6.55;2.38;;;17.70;99.90;;;;;;4801775;29;20722;-83
2022/11/04 13:19:30;;;;;;;7.18;1.63;;;17.10;99.90;;;;;;4799166;29;20053;-82
2022/11/04 13:21:59;;;;;;;5.70;1.00;;;16.50;99.90;;;;;;4792598;29;20058;-82
2022/11/04 13:24:36;;;;;;;4.57;1.33;;;15.90;99.90;;;;;;4811052;29;20046;-82
2022/11/04 13:27:25;;;;;;;4.63;1.73;;;15.50;99.90;;;;;;4805558;29;20666;-83
2022/11/04 13:30:05;;;;;;;5.97;1.25;;;15.30;99.90;;;;;;4775488;29;20066;-82
2022/11/04 13:32:40;;;;;;;7.07;1.30;;;14.90;99.90;;;;;;4783381;29;20083;-82
2022/11/04 13:35:09;;;;;;;7.70;1.58;;;14.70;99.90;;;;;;4783198;29;21256;-82
2022/11/04 13:37:47;;;;;;;4.32;1.13;;;14.50;99.90;;;;;;4799068;29;20057;-84
2022/11/04 13:40:50;;;;;;;5.05;1.35;;;14.30;99.90;;;;;;4774519;29;20629;-83
2022/11/04 13:43:38;;;;;;;4.32;1.15;;;14.10;99.90;;;;;;4788821;29;20046;-83